Time;durP1;ratioP1;P1;durP2;ratioP2;P2;SDS_P1;SDS_P2;PMS_P1;PMS_P2;Temp;Humidity;BMP_temperature;BMP_pressure;BME280_temperature;BME280_humidity;BME280_pressure;Samples;Min_cycle;Max_cycle;Signal;HPM_P1;HPM_P2
2021/12/15 00:00:26;;;;;;;14.70;7.93;;;20.70;49.90;;;;;;6244385;28;20018;-68
2021/12/15 00:03:27;;;;;;;13.45;7.60;;;20.70;49.90;;;;;;6259854;28;20402;-68
2021/12/15 00:06:28;;;;;;;16.55;8.43;;;20.70;49.90;;;;;;6269882;28;20074;-68
2021/12/15 00:09:29;;;;;;;16.52;8.30;;;20.70;50.00;;;;;;6270083;28;20043;-68
2021/12/15 00:12:30;;;;;;;14.90;7.75;;;20.70;49.90;;;;;;6269686;28;20032;-68
2021/12/15 00:15:31;;;;;;;13.50;7.75;;;20.70;49.90;;;;;;6250633;28;20360;-68
2021/12/15 00:18:32;;;;;;;14.13;7.80;;;20.70;50.00;;;;;;6252815;28;20386;-68
2021/12/15 00:21:33;;;;;;;14.10;7.38;;;20.70;50.00;;;;;;6245843;28;20032;-68
2021/12/15 00:24:35;;;;;;;12.90;7.15;;;20.70;50.00;;;;;;6247882;28;20026;-68
2021/12/15 00:27:36;;;;;;;11.48;7.00;;;20.70;49.90;;;;;;6258608;28;20031;-68
2021/12/15 00:30:38;;;;;;;12.07;6.88;;;20.70;50.00;;;;;;6265016;28;20052;-68
2021/12/15 00:33:41;;;;;;;11.75;6.63;;;20.70;49.90;;;;;;6264696;28;20232;-68
2021/12/15 00:36:44;;;;;;;10.77;6.72;;;20.70;50.00;;;;;;6267807;28;20032;-68
2021/12/15 00:39:45;;;;;;;11.77;6.90;;;20.70;50.00;;;;;;6268049;28;20440;-68
2021/12/15 00:42:47;;;;;;;11.85;6.78;;;20.70;50.00;;;;;;6268075;28;20021;-68
2021/12/15 00:45:48;;;;;;;10.52;6.28;;;20.70;50.00;;;;;;6269426;28;20025;-68
2021/12/15 00:48:49;;;;;;;10.73;6.30;;;20.70;50.00;;;;;;6252446;28;20028;-68
2021/12/15 00:51:51;;;;;;;10.95;6.68;;;20.70;50.00;;;;;;6269181;28;20020;-68
2021/12/15 00:54:51;;;;;;;12.45;6.80;;;20.70;50.00;;;;;;6268975;28;20035;-68
2021/12/15 00:57:52;;;;;;;11.88;6.82;;;20.70;50.00;;;;;;6268329;28;20060;-68
2021/12/15 01:01:01;;;;;;;11.18;5.95;;;20.70;50.00;;;;;;6268817;28;20031;-68
2021/12/15 01:04:03;;;;;;;10.95;5.93;;;20.70;50.00;;;;;;6268569;28;20021;-68
2021/12/15 01:07:08;;;;;;;8.63;5.60;;;20.70;50.00;;;;;;6268380;28;20051;-68
2021/12/15 01:10:13;;;;;;;8.48;4.90;;;20.70;50.00;;;;;;6267332;28;20064;-68
2021/12/15 01:19:58;;;;;;;9.93;5.10;;;20.70;49.90;;;;;;6268059;28;20060;-68
2021/12/15 01:23:04;;;;;;;8.90;5.13;;;20.70;50.00;;;;;;6268295;28;20052;-68
2021/12/15 01:26:08;;;;;;;7.53;5.00;;;20.60;49.90;;;;;;6256634;28;20035;-68
2021/12/15 01:29:09;;;;;;;9.53;5.90;;;20.70;50.00;;;;;;6268140;28;20359;-68
2021/12/15 01:32:10;;;;;;;9.30;5.25;;;20.70;50.00;;;;;;6249920;28;20033;-68
2021/12/15 01:35:12;;;;;;;9.07;5.05;;;20.60;49.90;;;;;;6243748;28;20509;-68
2021/12/15 01:38:14;;;;;;;8.35;5.43;;;20.60;49.90;;;;;;6258513;28;20029;-68
2021/12/15 01:41:21;;;;;;;8.10;4.90;;;20.70;50.00;;;;;;6266506;28;20485;-68
2021/12/15 01:47:24;;;;;;;7.60;4.72;;;20.70;50.00;;;;;;6267948;28;20021;-67
2021/12/15 01:50:25;;;;;;;7.03;4.20;;;20.60;49.90;;;;;;6267907;28;20398;-68
2021/12/15 01:53:26;;;;;;;7.35;4.75;;;20.60;49.90;;;;;;6268260;28;20485;-67
2021/12/15 01:56:28;;;;;;;7.80;4.80;;;20.60;49.90;;;;;;6268800;28;20390;-67
2021/12/15 01:59:30;;;;;;;7.57;4.63;;;20.60;49.90;;;;;;6266979;28;20138;-66
2021/12/15 02:02:30;;;;;;;7.85;4.78;;;20.60;49.90;;;;;;6268664;28;20479;-67
2021/12/15 02:05:32;;;;;;;7.47;3.80;;;20.60;49.90;;;;;;6267464;28;20060;-67
2021/12/15 02:08:33;;;;;;;5.80;3.90;;;20.60;49.90;;;;;;6268420;28;20033;-66
2021/12/15 02:11:34;;;;;;;7.47;5.07;;;20.60;49.90;;;;;;6268511;28;20075;-67
2021/12/15 02:14:35;;;;;;;6.97;4.43;;;20.60;49.90;;;;;;6249689;28;20049;-66
2021/12/15 02:17:36;;;;;;;6.30;4.13;;;20.60;49.90;;;;;;6244191;28;20119;-67
2021/12/15 02:21:05;;;;;;;6.45;4.07;;;20.60;49.90;;;;;;6268911;28;20020;-67
2021/12/15 02:24:06;;;;;;;5.38;4.03;;;20.60;49.90;;;;;;6260273;28;20394;-67
2021/12/15 02:27:07;;;;;;;6.65;4.15;;;20.60;49.90;;;;;;6247902;28;20057;-66
2021/12/15 02:37:17;;;;;;;5.20;3.80;;;20.60;49.90;;;;;;6264912;28;20048;-66
2021/12/15 02:40:06;;;;;;;5.38;3.40;;;20.60;49.90;;;;;;6243044;28;20502;-67
2021/12/15 02:43:07;;;;;;;5.22;3.65;;;20.60;49.90;;;;;;6258893;28;20017;-66
2021/12/15 02:46:08;;;;;;;4.93;3.10;;;20.60;49.90;;;;;;6268768;28;20027;-66
2021/12/15 02:49:11;;;;;;;5.40;3.20;;;20.60;49.90;;;;;;6244865;28;20394;-67
2021/12/15 02:52:12;;;;;;;6.00;3.67;;;20.60;49.90;;;;;;6249644;28;20414;-67
2021/12/15 02:55:14;;;;;;;5.53;3.05;;;20.60;50.00;;;;;;6268715;28;20389;-67
2021/12/15 02:58:17;;;;;;;5.30;3.60;;;20.60;49.90;;;;;;6254205;28;20092;-66
2021/12/15 03:01:31;;;;;;;4.60;3.28;;;20.60;49.90;;;;;;6243333;28;20472;-67
2021/12/15 03:05:01;;;;;;;5.03;3.38;;;20.60;49.90;;;;;;6243086;28;20345;-66
2021/12/15 03:08:34;;;;;;;4.28;2.90;;;20.60;49.90;;;;;;6242965;28;20024;-66
2021/12/15 03:18:23;;;;;;;4.15;3.05;;;20.60;50.00;;;;;;6258078;28;20065;-66
2021/12/15 03:21:26;;;;;;;4.75;3.17;;;20.60;49.90;;;;;;6270686;28;20057;-67
2021/12/15 03:24:27;;;;;;;4.93;3.22;;;20.60;49.90;;;;;;6272253;28;20025;-67
2021/12/15 03:33:17;;;;;;;5.50;2.88;;;20.60;49.90;;;;;;6248077;28;20029;-66
2021/12/15 03:37:28;;;;;;;4.20;3.17;;;20.60;49.90;;;;;;6238993;28;20558;-66
2021/12/15 03:40:38;;;;;;;4.65;3.28;;;20.60;49.90;;;;;;6271816;28;20037;-66
2021/12/15 03:43:39;;;;;;;3.25;2.50;;;20.60;49.90;;;;;;6271737;28;20025;-67
2021/12/15 03:46:40;;;;;;;4.63;2.80;;;20.60;50.00;;;;;;6271163;28;20485;-67
2021/12/15 03:49:40;;;;;;;3.92;2.75;;;20.60;50.00;;;;;;6271665;28;20048;-67
2021/12/15 03:52:42;;;;;;;3.55;2.22;;;20.60;49.90;;;;;;6261306;28;20064;-67
2021/12/15 03:55:43;;;;;;;3.30;2.50;;;20.60;49.90;;;;;;6246980;28;20032;-67
2021/12/15 03:58:45;;;;;;;3.42;2.55;;;20.60;49.90;;;;;;6264403;28;20064;-66
2021/12/15 04:01:46;;;;;;;4.10;2.60;;;20.60;50.00;;;;;;6270501;28;20017;-67
2021/12/15 04:04:48;;;;;;;3.22;2.40;;;20.60;50.00;;;;;;6246486;28;20040;-66
2021/12/15 04:07:50;;;;;;;4.03;2.60;;;20.60;50.00;;;;;;6245019;28;20025;-67
2021/12/15 04:10:52;;;;;;;4.63;2.60;;;20.60;50.00;;;;;;6244968;28;20028;-67
2021/12/15 04:13:59;;;;;;;3.55;2.80;;;20.60;50.00;;;;;;6244818;28;20518;-66
2021/12/15 04:17:06;;;;;;;4.95;3.05;;;20.60;50.00;;;;;;6245260;28;20053;-67
2021/12/15 04:20:14;;;;;;;3.40;2.63;;;20.60;50.00;;;;;;6253448;28;20536;-67
2021/12/15 04:23:20;;;;;;;3.28;2.38;;;20.60;50.00;;;;;;6244769;28;20018;-67
2021/12/15 04:26:21;;;;;;;3.10;2.33;;;20.60;50.00;;;;;;6260603;28;20013;-67
2021/12/15 04:29:22;;;;;;;3.75;2.58;;;20.60;50.00;;;;;;6269223;28;20064;-66
2021/12/15 04:32:32;;;;;;;3.92;2.40;;;20.60;50.00;;;;;;6258673;28;20028;-67
2021/12/15 04:35:34;;;;;;;3.15;2.10;;;20.60;49.90;;;;;;6245929;28;20498;-66
2021/12/15 04:38:35;;;;;;;2.97;2.38;;;20.60;50.00;;;;;;6244240;28;20349;-66
2021/12/15 04:41:36;;;;;;;3.42;2.45;;;20.60;50.00;;;;;;6245574;28;20030;-67
2021/12/15 04:44:38;;;;;;;3.20;2.40;;;20.60;50.00;;;;;;6246104;28;20021;-66
2021/12/15 04:47:39;;;;;;;3.30;2.35;;;20.60;50.00;;;;;;6254969;28;20032;-67
2021/12/15 04:50:40;;;;;;;3.25;2.40;;;20.60;50.00;;;;;;6269506;28;20029;-66
2021/12/15 04:53:41;;;;;;;2.53;1.90;;;20.60;50.00;;;;;;6250431;28;20398;-67
2021/12/15 04:56:42;;;;;;;3.17;2.13;;;20.60;50.00;;;;;;6246507;28;20033;-67
2021/12/15 04:59:44;;;;;;;2.90;1.95;;;20.60;50.00;;;;;;6269758;28;20083;-67
2021/12/15 05:02:46;;;;;;;3.72;2.60;;;20.60;50.00;;;;;;6259612;28;20560;-67
2021/12/15 05:05:47;;;;;;;2.63;2.03;;;20.60;50.00;;;;;;6244972;28;20018;-67
2021/12/15 05:08:48;;;;;;;4.50;2.47;;;20.60;50.00;;;;;;6258760;28;20417;-67
2021/12/15 05:11:50;;;;;;;3.47;1.90;;;20.60;50.00;;;;;;6269403;28;20171;-67
2021/12/15 05:14:51;;;;;;;2.17;1.85;;;20.60;50.00;;;;;;6247498;28;20140;-67
2021/12/15 05:17:52;;;;;;;2.70;2.10;;;20.60;50.00;;;;;;6244493;28;20329;-67
2021/12/15 05:20:53;;;;;;;3.35;2.40;;;20.60;50.00;;;;;;6244836;28;20136;-67
2021/12/15 05:24:00;;;;;;;2.80;2.05;;;20.60;50.00;;;;;;6245016;28;20092;-66
2021/12/15 05:27:09;;;;;;;2.63;1.90;;;20.60;50.00;;;;;;6254106;28;20033;-67
2021/12/15 05:30:14;;;;;;;2.80;2.08;;;20.60;50.00;;;;;;6244959;28;20037;-66
2021/12/15 05:33:15;;;;;;;1.98;1.77;;;20.60;50.00;;;;;;6242942;28;20424;-66
2021/12/15 05:36:16;;;;;;;3.10;2.28;;;20.60;50.00;;;;;;6244380;28;20038;-66
2021/12/15 05:39:18;;;;;;;2.75;2.08;;;20.60;50.00;;;;;;6244040;28;20097;-67
2021/12/15 05:42:22;;;;;;;3.65;2.20;;;20.60;50.00;;;;;;6253632;28;20478;-68
2021/12/15 05:45:36;;;;;;;2.40;1.88;;;20.60;49.90;;;;;;6266782;28;20025;-68
2021/12/15 05:48:37;;;;;;;3.05;2.17;;;20.60;49.90;;;;;;6266399;28;20119;-68
2021/12/15 05:51:38;;;;;;;3.08;2.08;;;20.60;50.00;;;;;;6264743;28;20428;-68
2021/12/15 05:54:39;;;;;;;2.58;1.80;;;20.60;49.90;;;;;;6243239;28;20049;-68
2021/12/15 05:57:40;;;;;;;2.38;1.88;;;20.60;50.00;;;;;;6251501;28;20554;-68
2021/12/15 06:00:42;;;;;;;2.55;1.95;;;20.60;49.90;;;;;;6267044;28;20482;-67
2021/12/15 06:03:44;;;;;;;2.00;1.73;;;20.60;50.00;;;;;;6236051;28;20025;-68
2021/12/15 06:06:45;;;;;;;2.35;1.77;;;20.60;49.90;;;;;;6243050;28;20108;-68
2021/12/15 06:09:45;;;;;;;2.75;1.85;;;20.60;50.00;;;;;;6264474;28;20029;-68
2021/12/15 06:12:49;;;;;;;2.25;1.70;;;20.60;49.90;;;;;;6261222;28;20127;-68
2021/12/15 06:15:50;;;;;;;2.47;1.75;;;20.60;49.90;;;;;;6241404;28;20454;-68
2021/12/15 06:18:51;;;;;;;1.77;1.50;;;20.60;49.90;;;;;;6254433;28;20128;-68
2021/12/15 06:21:52;;;;;;;1.90;1.63;;;20.60;49.90;;;;;;6267731;28;20021;-68
2021/12/15 06:24:55;;;;;;;2.05;1.70;;;20.60;49.90;;;;;;6266386;28;20033;-68
2021/12/15 06:27:56;;;;;;;1.90;1.67;;;20.60;49.80;;;;;;6266699;28;20044;-68
2021/12/15 06:30:58;;;;;;;2.20;1.70;;;20.60;49.80;;;;;;6257669;28;20033;-68
2021/12/15 06:33:59;;;;;;;1.80;1.52;;;20.60;49.80;;;;;;6266327;28;20033;-68
2021/12/15 06:37:00;;;;;;;2.10;1.67;;;20.60;49.80;;;;;;6266652;28;20025;-68
2021/12/15 06:40:07;;;;;;;1.80;1.40;;;20.60;49.70;;;;;;6267040;28;20374;-68
2021/12/15 06:43:08;;;;;;;1.83;1.48;;;20.60;49.70;;;;;;6266564;28;20017;-68
2021/12/15 06:59:07;;;;;;;2.08;1.60;;;20.60;49.70;;;;;;6267812;28;20037;-68
2021/12/15 07:02:08;;;;;;;1.90;1.33;;;20.60;49.70;;;;;;6246284;28;20045;-69
2021/12/15 07:05:11;;;;;;;1.73;1.35;;;20.60;49.70;;;;;;6249595;28;20028;-69
2021/12/15 07:08:14;;;;;;;2.10;1.52;;;20.70;49.90;;;;;;6247101;28;20032;-69
2021/12/15 07:11:14;;;;;;;2.95;1.70;;;20.70;49.90;;;;;;6248971;28;20068;-69
2021/12/15 07:14:17;;;;;;;1.92;1.52;;;20.60;49.80;;;;;;6254776;28;20049;-69
2021/12/15 07:17:22;;;;;;;2.20;1.60;;;20.60;49.80;;;;;;6248739;28;20421;-68
2021/12/15 07:23:43;;;;;;;2.05;1.45;;;20.60;49.80;;;;;;6245169;28;20533;-69
2021/12/15 07:26:44;;;;;;;2.67;1.58;;;20.60;49.80;;;;;;6272778;28;20025;-69
2021/12/15 07:29:45;;;;;;;1.95;1.70;;;20.70;49.90;;;;;;6271458;28;20025;-69
2021/12/15 07:32:45;;;;;;;2.25;1.70;;;20.70;49.90;;;;;;6264213;28;20029;-69
2021/12/15 07:35:46;;;;;;;1.92;1.73;;;20.70;49.90;;;;;;6267988;28;20029;-70
2021/12/15 07:38:47;;;;;;;2.53;1.95;;;20.60;49.80;;;;;;6269380;28;20021;-69
2021/12/15 07:41:51;;;;;;;2.33;1.73;;;20.60;49.80;;;;;;6273199;28;20104;-68
2021/12/15 07:44:52;;;;;;;3.00;1.80;;;20.70;49.90;;;;;;6259487;28;20084;-68
2021/12/15 07:47:56;;;;;;;2.10;1.77;;;20.70;49.90;;;;;;6260450;28;20391;-69
2021/12/15 07:50:58;;;;;;;2.75;1.95;;;20.60;49.80;;;;;;6271582;28;20029;-69
2021/12/15 07:53:59;;;;;;;5.82;2.10;;;20.70;49.90;;;;;;6271380;28;20031;-69
2021/12/15 07:57:12;;;;;;;2.78;2.00;;;20.70;49.90;;;;;;6270405;28;20367;-69
2021/12/15 08:00:14;;;;;;;2.95;2.00;;;20.70;49.90;;;;;;6271345;28;20410;-69
2021/12/15 08:03:16;;;;;;;3.13;2.15;;;20.60;49.80;;;;;;6257565;28;20041;-69
2021/12/15 08:06:17;;;;;;;2.95;2.03;;;20.70;49.90;;;;;;6246355;28;20470;-68
2021/12/15 08:09:20;;;;;;;2.95;2.13;;;20.70;49.90;;;;;;6266125;28;20495;-69
2021/12/15 08:12:20;;;;;;;3.65;2.30;;;20.70;49.90;;;;;;6272424;28;20446;-69
2021/12/15 08:15:21;;;;;;;2.35;2.00;;;20.70;49.90;;;;;;6252584;28;20052;-70
2021/12/15 08:18:22;;;;;;;3.03;2.13;;;20.70;49.90;;;;;;6256898;28;20032;-69
2021/12/15 08:21:23;;;;;;;2.92;2.00;;;20.70;49.90;;;;;;6260722;28;20096;-69
2021/12/15 08:24:24;;;;;;;3.13;2.42;;;20.70;49.90;;;;;;6264850;28;20024;-69
2021/12/15 08:27:24;;;;;;;2.85;2.28;;;20.70;49.90;;;;;;6269809;28;20474;-68
2021/12/15 08:30:29;;;;;;;2.67;2.20;;;20.70;49.90;;;;;;6267035;28;20095;-68
2021/12/15 08:33:31;;;;;;;3.35;2.25;;;20.70;49.80;;;;;;6266976;28;20024;-70
2021/12/15 08:36:31;;;;;;;2.90;2.17;;;20.70;49.80;;;;;;6268237;28;20030;-69
2021/12/15 08:39:32;;;;;;;3.58;2.42;;;20.70;49.90;;;;;;6261232;28;20231;-69
2021/12/15 08:42:33;;;;;;;2.75;2.30;;;20.70;49.90;;;;;;6270058;28;20021;-69
2021/12/15 08:45:36;;;;;;;2.45;2.10;;;20.70;49.80;;;;;;6271203;28;20397;-70
2021/12/15 08:48:39;;;;;;;3.72;2.60;;;20.70;49.90;;;;;;6271434;28;20090;-69
2021/12/15 08:51:40;;;;;;;3.75;2.75;;;20.70;49.90;;;;;;6269960;28;20116;-69
2021/12/15 08:54:41;;;;;;;3.70;2.45;;;20.70;49.90;;;;;;6271049;28;20071;-69
2021/12/15 08:57:47;;;;;;;3.22;2.33;;;20.70;49.80;;;;;;6269389;28;20473;-69
2021/12/15 09:00:51;;;;;;;3.28;2.40;;;20.70;49.80;;;;;;6269913;28;20021;-69
2021/12/15 09:03:53;;;;;;;3.50;2.53;;;20.70;49.80;;;;;;6270421;28;20067;-69
2021/12/15 09:06:53;;;;;;;3.33;2.50;;;20.70;49.90;;;;;;6271041;28;20430;-69
2021/12/15 09:09:54;;;;;;;3.00;2.50;;;20.70;49.90;;;;;;6270006;28;20061;-69
2021/12/15 09:12:56;;;;;;;3.53;2.45;;;20.70;49.90;;;;;;6270434;28;20407;-70
2021/12/15 09:16:00;;;;;;;4.10;2.75;;;20.70;49.80;;;;;;6246627;28;20026;-68
2021/12/15 09:19:03;;;;;;;3.75;2.58;;;20.70;49.90;;;;;;6261088;28;20480;-69
2021/12/15 09:22:04;;;;;;;3.83;2.67;;;20.70;49.80;;;;;;6270671;28;20482;-68
2021/12/15 09:25:09;;;;;;;3.30;2.65;;;20.70;49.80;;;;;;6264840;28;20218;-69
2021/12/15 09:28:10;;;;;;;3.75;2.58;;;20.70;49.90;;;;;;6262095;28;20126;-69
2021/12/15 09:31:11;;;;;;;4.30;3.00;;;20.70;49.90;;;;;;6259976;28;20044;-70
2021/12/15 09:34:17;;;;;;;3.75;2.80;;;20.70;49.90;;;;;;6269385;28;20481;-69
2021/12/15 09:37:19;;;;;;;4.28;2.67;;;20.70;49.80;;;;;;6259383;28;20040;-69
2021/12/15 09:40:21;;;;;;;3.53;2.55;;;20.70;49.80;;;;;;6245626;28;20115;-69
2021/12/15 09:43:26;;;;;;;3.60;2.70;;;20.70;49.80;;;;;;6262718;28;20021;-69
2021/12/15 09:46:38;;;;;;;3.42;2.55;;;20.70;49.90;;;;;;6268492;28;20024;-69
2021/12/15 10:03:03;;;;;;;3.30;2.80;;;20.70;49.90;;;;;;6245640;28;20113;-69
2021/12/15 10:19:17;;;;;;;3.25;2.38;;;20.70;49.90;;;;;;6255611;28;20032;-68
2021/12/15 10:22:30;;;;;;;3.30;2.65;;;20.70;49.90;;;;;;6278139;28;20071;-69
2021/12/15 10:25:57;;;;;;;3.30;2.70;;;20.70;49.90;;;;;;6254282;28;20028;-69
2021/12/15 10:29:07;;;;;;;3.63;2.85;;;20.70;49.90;;;;;;6227865;28;20040;-70
2021/12/15 10:32:07;;;;;;;3.60;2.75;;;20.70;49.90;;;;;;6254021;28;20025;-69
2021/12/15 10:35:18;;;;;;;3.78;2.63;;;20.70;49.90;;;;;;6277810;28;20029;-69
2021/12/15 10:38:25;;;;;;;3.97;2.80;;;20.70;49.90;;;;;;6275433;28;20133;-69
2021/12/15 10:41:28;;;;;;;3.17;2.50;;;20.70;50.00;;;;;;6276455;28;20029;-69
2021/12/15 10:44:28;;;;;;;2.92;2.40;;;20.70;49.90;;;;;;6277504;28;20025;-70
2021/12/15 10:47:29;;;;;;;3.65;2.65;;;20.70;49.90;;;;;;6266946;28;20072;-70
2021/12/15 10:50:30;;;;;;;3.28;2.40;;;20.70;49.90;;;;;;6252308;28;20376;-70
2021/12/15 10:53:35;;;;;;;3.15;2.63;;;20.70;49.90;;;;;;6269308;28;20121;-70
2021/12/15 10:56:40;;;;;;;4.10;2.70;;;20.70;49.90;;;;;;6277013;28;20028;-69
2021/12/15 10:59:44;;;;;;;3.13;2.35;;;20.70;49.90;;;;;;6252592;28;20033;-69
2021/12/15 11:02:46;;;;;;;3.97;2.88;;;20.70;49.90;;;;;;6260218;28;20032;-69
2021/12/15 11:05:47;;;;;;;3.25;2.70;;;20.70;49.90;;;;;;6277338;28;20027;-69
2021/12/15 11:08:48;;;;;;;4.30;3.13;;;20.70;49.90;;;;;;6277139;28;20393;-69
2021/12/15 11:12:01;;;;;;;3.00;2.35;;;20.70;49.90;;;;;;6276346;28;20449;-69
2021/12/15 11:15:11;;;;;;;3.72;3.10;;;20.70;49.90;;;;;;6260238;28;20130;-70
2021/12/15 11:18:24;;;;;;;3.17;2.42;;;20.70;49.90;;;;;;6250788;28;20025;-69
2021/12/15 11:21:31;;;;;;;4.70;3.28;;;20.70;50.00;;;;;;6252337;28;20453;-68
2021/12/15 11:24:35;;;;;;;4.05;3.00;;;20.70;50.00;;;;;;6272788;28;20051;-69
2021/12/15 11:27:37;;;;;;;3.87;2.80;;;20.70;49.90;;;;;;6275316;28;20110;-70
2021/12/15 11:30:44;;;;;;;4.22;3.08;;;20.70;49.90;;;;;;6255889;28;20497;-69
2021/12/15 11:33:46;;;;;;;3.50;2.67;;;20.70;49.90;;;;;;6247630;28;20021;-69
2021/12/15 11:36:48;;;;;;;4.38;3.28;;;20.70;50.00;;;;;;6248565;28;20371;-69
2021/12/15 11:39:49;;;;;;;4.07;3.00;;;20.70;50.00;;;;;;6248177;28;20112;-69
2021/12/15 11:42:50;;;;;;;4.22;3.13;;;20.70;50.00;;;;;;6261194;28;20099;-68
2021/12/15 11:45:50;;;;;;;3.17;2.38;;;20.70;50.00;;;;;;6271990;28;20363;-69
2021/12/15 11:49:02;;;;;;;4.18;2.70;;;20.70;50.00;;;;;;6272459;28;20132;-70
2021/12/15 11:52:06;;;;;;;3.63;2.70;;;20.70;49.90;;;;;;6268078;28;20071;-68
2021/12/15 11:55:19;;;;;;;4.00;3.03;;;20.70;50.00;;;;;;6248093;28;20030;-68
2021/12/15 11:58:31;;;;;;;4.45;2.97;;;20.70;50.00;;;;;;6262455;28;20074;-69
2021/12/15 12:01:41;;;;;;;3.17;2.72;;;20.70;50.00;;;;;;6272672;28;20104;-69
2021/12/15 12:04:46;;;;;;;3.72;2.85;;;20.70;50.00;;;;;;6271134;28;20022;-69
2021/12/15 12:07:48;;;;;;;3.80;2.72;;;20.70;49.90;;;;;;6270891;28;20111;-69
2021/12/15 12:10:52;;;;;;;3.92;2.90;;;20.70;50.00;;;;;;6270913;28;20307;-69
2021/12/15 12:13:58;;;;;;;3.22;2.72;;;20.70;50.00;;;;;;6259039;28;20039;-68
2021/12/15 12:16:59;;;;;;;3.75;2.83;;;20.70;50.00;;;;;;6247686;28;20025;-68
2021/12/15 12:20:20;;;;;;;3.60;3.08;;;20.70;50.00;;;;;;6270550;28;20036;-69
2021/12/15 12:23:26;;;;;;;5.03;3.28;;;20.70;49.90;;;;;;6266346;28;20037;-69
2021/12/15 12:26:31;;;;;;;3.75;2.88;;;20.70;49.90;;;;;;6261501;28;20029;-69
2021/12/15 12:29:32;;;;;;;;;;;20.70;50.00;;;;;;6272263;28;20393;-68
2021/12/15 12:32:33;;;;;;;3.60;2.65;;;20.70;50.00;;;;;;6263252;28;19954;-69
2021/12/15 12:35:35;;;;;;;3.35;2.55;;;20.70;50.00;;;;;;6272395;28;20429;-70
2021/12/15 12:38:40;;;;;;;3.28;2.70;;;20.70;50.00;;;;;;6250123;28;20399;-69
2021/12/15 12:41:45;;;;;;;4.07;2.90;;;20.70;50.00;;;;;;6250326;28;20104;-69
2021/12/15 12:44:50;;;;;;;4.00;2.88;;;20.70;50.00;;;;;;6269053;28;20025;-69
2021/12/15 12:48:07;;;;;;;3.22;2.75;;;20.70;50.00;;;;;;6264794;28;20124;-70
2021/12/15 13:01:12;;;;;;;3.92;2.88;;;20.70;50.00;;;;;;6246317;28;20056;-69
2021/12/15 13:04:12;;;;;;;3.33;2.60;;;20.70;50.00;;;;;;6266071;28;20092;-70
2021/12/15 13:07:13;;;;;;;3.50;2.80;;;20.70;50.00;;;;;;6269228;28;20021;-70
2021/12/15 13:10:15;;;;;;;3.80;2.88;;;20.70;50.00;;;;;;6269785;28;20478;-69
2021/12/15 13:13:19;;;;;;;4.07;2.95;;;20.70;50.00;;;;;;6270237;28;20041;-70
2021/12/15 13:16:29;;;;;;;3.95;3.17;;;20.70;50.00;;;;;;6271020;28;20094;-69
2021/12/15 13:19:33;;;;;;;3.80;3.00;;;20.70;50.00;;;;;;6270892;28;20032;-69
2021/12/15 13:22:58;;;;;;;3.72;2.95;;;20.70;50.00;;;;;;6269435;28;20035;-69
2021/12/15 13:29:23;;;;;;;3.70;2.83;;;20.70;50.00;;;;;;6270447;28;20029;-69
2021/12/15 13:32:29;;;;;;;3.35;2.65;;;20.70;50.00;;;;;;6260383;28;20036;-69
2021/12/15 13:35:54;;;;;;;4.20;2.95;;;20.70;50.00;;;;;;6269274;28;20025;-69
2021/12/15 13:38:56;;;;;;;3.40;2.55;;;20.70;50.00;;;;;;6270153;28;20390;-69
2021/12/15 13:45:00;;;;;;;4.05;3.08;;;20.70;50.00;;;;;;6270684;28;20035;-69
2021/12/15 13:48:00;;;;;;;3.47;2.70;;;20.70;50.00;;;;;;6269576;28;20029;-69
2021/12/15 13:51:01;;;;;;;3.75;2.85;;;20.70;50.00;;;;;;6269876;28;20371;-69
2021/12/15 13:54:01;;;;;;;3.58;2.90;;;20.70;50.00;;;;;;6249010;28;20025;-69
2021/12/15 13:57:11;;;;;;;3.70;2.97;;;20.70;50.00;;;;;;6248315;28;20032;-69
2021/12/15 14:00:17;;;;;;;4.13;2.95;;;20.70;50.00;;;;;;6268811;28;20064;-69
2021/12/15 14:03:39;;;;;;;3.40;2.53;;;20.70;50.00;;;;;;6268821;28;20029;-68
2021/12/15 14:06:40;;;;;;;3.75;2.80;;;20.70;50.00;;;;;;6268643;28;20247;-69
2021/12/15 14:09:40;;;;;;;4.32;2.90;;;20.70;50.00;;;;;;6269684;28;20059;-69
2021/12/15 14:12:47;;;;;;;3.83;2.95;;;20.70;50.70;;;;;;6266707;28;20514;-69
2021/12/15 14:15:50;;;;;;;3.55;2.65;;;20.70;50.00;;;;;;6244953;28;20044;-69
2021/12/15 14:18:50;;;;;;;4.03;2.90;;;20.70;50.00;;;;;;6262803;28;20033;-69
2021/12/15 14:21:56;;;;;;;3.65;2.90;;;20.70;50.00;;;;;;6269832;28;20056;-69
2021/12/15 14:25:00;;;;;;;3.33;2.63;;;20.70;50.00;;;;;;6248241;28;20021;-69
2021/12/15 14:28:05;;;;;;;2.83;2.42;;;20.70;50.00;;;;;;6244510;28;20028;-69
2021/12/15 14:31:17;;;;;;;3.25;2.40;;;20.70;50.00;;;;;;6245069;28;20109;-69
2021/12/15 14:34:22;;;;;;;3.78;2.80;;;20.70;50.00;;;;;;6269703;28;20456;-69
2021/12/15 14:37:23;;;;;;;3.47;2.55;;;20.70;50.00;;;;;;6267917;28;20135;-70
2021/12/15 14:40:27;;;;;;;4.03;3.13;;;20.70;50.00;;;;;;6269600;28;20043;-69
2021/12/15 14:43:28;;;;;;;3.63;2.90;;;20.70;50.00;;;;;;6254652;28;20029;-69
2021/12/15 14:46:32;;;;;;;3.90;3.00;;;20.70;50.00;;;;;;6245497;28;20026;-68
2021/12/15 14:49:37;;;;;;;4.60;3.20;;;20.70;50.00;;;;;;6267730;28;20051;-69
2021/12/15 14:52:40;;;;;;;3.45;3.00;;;20.70;50.10;;;;;;6269138;28;20021;-69
2021/12/15 14:55:42;;;;;;;3.38;2.83;;;20.70;50.10;;;;;;6269341;28;20068;-69
2021/12/15 14:58:42;;;;;;;3.30;2.83;;;20.70;50.10;;;;;;6250915;28;20029;-69
2021/12/15 15:01:46;;;;;;;3.58;2.60;;;20.70;50.10;;;;;;6244547;28;20021;-69
2021/12/15 15:04:52;;;;;;;3.20;2.80;;;20.70;50.00;;;;;;6269176;28;20417;-68
2021/12/15 15:08:01;;;;;;;3.35;2.55;;;20.70;50.00;;;;;;6260659;28;20030;-70
2021/12/15 15:11:03;;;;;;;4.20;3.20;;;20.70;50.00;;;;;;6247991;28;20029;-69
2021/12/15 15:14:03;;;;;;;3.95;2.75;;;20.70;50.00;;;;;;6254705;28;20505;-69
2021/12/15 15:17:07;;;;;;;3.67;2.92;;;20.70;50.00;;;;;;6247541;28;20025;-69
2021/12/15 15:20:14;;;;;;;4.72;3.30;;;20.70;50.00;;;;;;6269680;28;20041;-69
2021/12/15 15:23:21;;;;;;;4.40;3.28;;;20.70;50.10;;;;;;6273855;28;20021;-70
2021/12/15 15:26:22;;;;;;;3.55;2.85;;;20.70;50.00;;;;;;6269579;28;20542;-69
2021/12/15 15:29:32;;;;;;;4.78;3.10;;;20.70;50.00;;;;;;6248645;28;20029;-69
2021/12/15 15:32:35;;;;;;;4.30;2.92;;;20.70;50.10;;;;;;6260599;28;20017;-69
2021/12/15 15:35:43;;;;;;;3.92;2.95;;;20.70;50.10;;;;;;6272974;28;20391;-69
2021/12/15 15:38:47;;;;;;;4.28;2.90;;;20.70;50.10;;;;;;6273087;28;20029;-69
2021/12/15 15:41:48;;;;;;;4.27;3.17;;;20.70;50.10;;;;;;6260542;28;20024;-69
2021/12/15 15:44:49;;;;;;;3.40;2.60;;;20.70;50.10;;;;;;6273308;28;20029;-69
2021/12/15 15:47:50;;;;;;;4.00;3.03;;;20.70;50.10;;;;;;6272135;28;20029;-69
2021/12/15 15:50:55;;;;;;;3.08;2.50;;;20.70;50.10;;;;;;6271584;28;20081;-69
2021/12/15 15:53:57;;;;;;;;;;;20.70;50.00;;;;;;6272853;28;20032;-69
2021/12/15 15:57:00;;;;;;;2.95;2.33;;;20.70;50.00;;;;;;6272230;28;19905;-69
2021/12/15 16:00:02;;;;;;;3.50;2.63;;;20.70;50.10;;;;;;6267687;28;20017;-69
2021/12/15 16:03:07;;;;;;;4.07;3.03;;;20.70;50.00;;;;;;6260362;28;20360;-70
2021/12/15 16:06:11;;;;;;;4.38;3.20;;;20.70;50.10;;;;;;6247552;28;20034;-68
2021/12/15 16:09:14;;;;;;;3.58;2.42;;;20.70;50.80;;;;;;6265132;28;20064;-70
2021/12/15 16:12:16;;;;;;;4.05;2.90;;;20.70;50.10;;;;;;6270783;28;20090;-70
2021/12/15 16:15:32;;;;;;;3.42;2.67;;;20.70;50.10;;;;;;6253681;28;20059;-69
2021/12/15 16:18:40;;;;;;;3.83;2.72;;;20.70;50.10;;;;;;6247106;28;20387;-69
2021/12/15 16:24:47;;;;;;;3.58;2.65;;;20.70;50.00;;;;;;6249369;28;20032;-70
2021/12/15 16:27:53;;;;;;;3.97;2.92;;;20.70;50.10;;;;;;6271631;28;20021;-69
2021/12/15 16:30:56;;;;;;;3.83;3.00;;;20.70;50.10;;;;;;6258936;28;20020;-69
2021/12/15 16:33:57;;;;;;;4.43;3.17;;;20.70;50.10;;;;;;6269702;28;20513;-69
2021/12/15 16:36:58;;;;;;;4.45;3.03;;;20.70;50.10;;;;;;6264460;28;20030;-69
2021/12/15 16:40:06;;;;;;;3.15;2.47;;;20.70;50.10;;;;;;6246949;28;20100;-69
2021/12/15 16:43:10;;;;;;;3.15;2.50;;;20.70;50.10;;;;;;6254097;28;20060;-69
2021/12/15 16:46:14;;;;;;;3.73;2.70;;;20.70;50.00;;;;;;6240519;28;20018;-69
2021/12/15 16:49:24;;;;;;;4.20;2.83;;;20.70;50.10;;;;;;6242640;28;20516;-68
2021/12/15 16:52:32;;;;;;;3.63;2.45;;;20.70;50.10;;;;;;6252852;28;20071;-69
2021/12/15 16:55:33;;;;;;;5.18;3.10;;;20.70;50.10;;;;;;6268734;28;20029;-70
2021/12/15 16:58:34;;;;;;;3.25;2.55;;;20.70;50.00;;;;;;6252136;28;20048;-69
2021/12/15 17:01:37;;;;;;;3.97;2.78;;;20.70;50.10;;;;;;6245726;28;20026;-69
2021/12/15 17:04:40;;;;;;;4.00;3.15;;;20.70;50.10;;;;;;6245079;28;20100;-69
2021/12/15 17:07:48;;;;;;;3.47;2.90;;;20.70;50.00;;;;;;6244999;28;20057;-69
2021/12/15 17:10:57;;;;;;;4.00;2.83;;;20.70;50.10;;;;;;6252157;28;20025;-69
2021/12/15 17:14:02;;;;;;;3.22;2.63;;;20.70;50.10;;;;;;6253162;28;20076;-68
2021/12/15 17:17:03;;;;;;;4.18;2.80;;;20.70;50.10;;;;;;6264866;28;20494;-68
2021/12/15 17:20:13;;;;;;;6.45;3.00;;;20.70;50.10;;;;;;6237960;28;20492;-67
2021/12/15 17:23:22;;;;;;;3.08;2.60;;;20.70;50.10;;;;;;6256332;28;20017;-73
2021/12/15 17:26:34;;;;;;;5.70;3.08;;;20.70;50.10;;;;;;6248072;28;20022;-68